Time;durP1;ratioP1;P1;durP2;ratioP2;P2;SDS_P1;SDS_P2;PMS_P1;PMS_P2;Temp;Humidity;BMP_temperature;BMP_pressure;BME280_temperature;BME280_humidity;BME280_pressure;Samples;Min_cycle;Max_cycle;Signal;HPM_P1;HPM_P2
2023/01/27 00:01:33;;;;;;;59.20;24.73;;;;;;;1.02;69.63;98629.72;5069488;28;20404;-76
2023/01/27 00:03:58;;;;;;;62.40;24.60;;;;;;;1.01;69.74;98624.56;5069135;28;20035;-75
2023/01/27 00:06:24;;;;;;;65.03;26.08;;;;;;;1.00;68.96;98618.34;5068548;28;20131;-75
2023/01/27 00:08:49;;;;;;;61.97;26.33;;;;;;;0.98;69.62;98619.63;5068465;28;20057;-75
2023/01/27 00:13:58;;;;;;;53.40;23.92;;;;;;;0.94;69.24;98615.72;5068866;28;20036;-76
2023/01/27 00:16:24;;;;;;;52.97;23.00;;;;;;;0.94;69.29;98618.44;5068473;28;20025;-75
2023/01/27 00:18:49;;;;;;;50.13;23.08;;;;;;;0.96;69.41;98627.13;5068615;28;20130;-76
2023/01/27 00:26:43;;;;;;;76.35;32.17;;;;;;;0.86;69.76;98628.50;5067964;28;20105;-76
2023/01/27 00:29:09;;;;;;;91.03;34.50;;;;;;;0.85;69.16;98617.91;5068286;28;20025;-76
2023/01/27 00:34:18;;;;;;;77.60;32.85;;;;;;;0.87;69.50;98629.31;5068521;28;20066;-76
2023/01/27 00:36:43;;;;;;;88.80;35.15;;;;;;;0.90;70.01;98634.25;5068397;28;20474;-75
2023/01/27 00:39:10;;;;;;;76.70;31.45;;;;;;;0.88;69.61;98631.78;5070928;28;20528;-76
2023/01/27 00:41:36;;;;;;;67.68;30.08;;;;;;;0.87;69.83;98632.84;5071776;28;20025;-75
2023/01/27 00:44:03;;;;;;;66.28;28.70;;;;;;;0.86;69.49;98630.34;5072356;28;20025;-75
2023/01/27 00:46:28;;;;;;;66.35;29.23;;;;;;;0.86;70.04;98633.06;5072328;28;20033;-75
2023/01/27 00:48:54;;;;;;;66.70;28.58;;;;;;;0.87;70.06;98632.00;5071681;28;20031;-76
2023/01/27 00:51:20;;;;;;;57.63;25.85;;;;;;;0.87;69.33;98632.84;5070641;28;20032;-76
2023/01/27 00:53:46;;;;;;;56.05;25.13;;;;;;;0.86;69.98;98633.91;5053830;28;20402;-76
2023/01/27 00:56:12;;;;;;;59.42;26.00;;;;;;;0.88;70.04;98633.66;5072112;28;20032;-75
2023/01/27 00:58:37;;;;;;;59.38;26.55;;;;;;;0.88;69.91;98626.41;5071991;28;20029;-75
2023/01/27 01:01:05;;;;;;;61.13;26.70;;;;;;;0.90;70.30;98626.16;5071197;28;20032;-76
2023/01/27 01:03:32;;;;;;;65.38;28.63;;;;;;;0.91;69.40;98625.09;5071581;28;20489;-76
2023/01/27 01:06:00;;;;;;;64.72;29.80;;;;;;;0.93;69.78;98630.28;5071478;28;20036;-76
2023/01/27 01:08:28;;;;;;;65.68;28.10;;;;;;;0.88;70.17;98623.69;5069394;28;20025;-75
2023/01/27 01:10:53;;;;;;;70.57;30.27;;;;;;;0.87;69.27;98624.75;5070743;28;20107;-75
2023/01/27 01:13:20;;;;;;;69.30;30.45;;;;;;;0.88;69.95;98623.69;5053645;28;20103;-76
2023/01/27 01:15:46;;;;;;;62.30;29.35;;;;;;;0.85;69.90;98624.16;5071573;28;20024;-75
2023/01/27 01:18:12;;;;;;;63.90;27.60;;;;;;;0.87;69.44;98623.91;5071431;28;20498;-76
2023/01/27 01:20:39;;;;;;;62.08;27.83;;;;;;;0.87;69.55;98621.19;5071054;28;20046;-77
2023/01/27 01:23:06;;;;;;;62.22;26.88;;;;;;;0.86;69.70;98623.09;5071143;28;20289;-76
2023/01/27 01:25:32;;;;;;;60.38;27.80;;;;;;;0.86;69.92;98628.50;5071226;28;20021;-76
2023/01/27 01:27:58;;;;;;;59.15;27.05;;;;;;;0.85;70.15;98623.31;5068918;28;20044;-75
2023/01/27 01:30:25;;;;;;;64.47;29.15;;;;;;;0.84;70.37;98622.50;5071036;28;20047;-76
2023/01/27 01:32:52;;;;;;;63.03;27.55;;;;;;;0.85;69.86;98621.44;5071239;28;20485;-76
2023/01/27 01:35:18;;;;;;;56.22;27.17;;;;;;;0.83;69.85;98615.44;5070158;28;20032;-77
2023/01/27 01:37:43;;;;;;;71.88;31.60;;;;;;;0.85;69.79;98620.59;5071748;28;20396;-76
2023/01/27 01:40:11;;;;;;;69.00;30.02;;;;;;;0.84;70.18;98618.97;5070420;28;20035;-76
2023/01/27 01:42:53;;;;;;;80.28;32.35;;;;;;;0.82;69.53;98616.50;5070933;28;20016;-75
2023/01/27 01:45:45;;;;;;;66.45;27.05;;;;;;;0.82;70.15;98619.19;5070592;28;20059;-76
2023/01/27 01:48:16;;;;;;;51.38;22.40;;;;;;;0.83;70.16;98614.63;5060428;28;20037;-76
2023/01/27 01:50:49;;;;;;;49.95;23.92;;;;;;;0.82;69.86;98610.25;5070160;28;20111;-76
2023/01/27 01:53:16;;;;;;;45.88;21.77;;;;;;;0.79;70.00;98624.25;5071506;28;20024;-75
2023/01/27 01:55:41;;;;;;;51.05;22.65;;;;;;;0.78;69.52;98609.91;5071014;28;20509;-76
2023/01/27 01:58:10;;;;;;;46.75;23.45;;;;;;;0.78;70.10;98612.59;5070976;28;20029;-76
2023/01/27 02:00:36;;;;;;;46.65;21.63;;;;;;;0.75;70.40;98615.75;5070652;28;20494;-76
2023/01/27 02:03:02;;;;;;;49.55;22.17;;;;;;;0.74;70.14;98616.81;5071194;28;20027;-76
2023/01/27 02:05:36;;;;;;;52.03;22.20;;;;;;;0.69;70.03;98608.56;5071211;28;20544;-76
2023/01/27 02:08:06;;;;;;;47.40;22.48;;;;;;;0.71;70.28;98610.00;5071399;28;20032;-76
2023/01/27 02:10:33;;;;;;;51.60;22.75;;;;;;;0.71;69.89;98607.31;5070275;28;20068;-76
2023/01/27 02:12:58;;;;;;;50.53;23.20;;;;;;;0.72;69.71;98610.81;5071020;28;20032;-76
2023/01/27 02:15:24;;;;;;;47.00;21.20;;;;;;;0.72;70.43;98611.66;5070530;28;20039;-76
2023/01/27 02:17:49;;;;;;;51.33;24.08;;;;;;;0.72;69.98;98605.41;5070856;28;20040;-76
2023/01/27 02:20:30;;;;;;;49.17;21.83;;;;;;;0.66;69.66;98603.63;5070338;28;20024;-76
2023/01/27 02:23:20;;;;;;;43.42;21.70;;;;;;;0.65;70.14;98601.97;5071098;28;20032;-76
2023/01/27 02:26:08;;;;;;;52.90;23.23;;;;;;;0.64;70.15;98613.81;5070256;28;20055;-75
2023/01/27 02:28:34;;;;;;;51.50;23.30;;;;;;;0.68;69.95;98609.63;5070759;28;20092;-76
2023/01/27 02:30:59;;;;;;;49.35;21.75;;;;;;;0.69;69.84;98603.16;5070107;28;20056;-76
2023/01/27 02:33:24;;;;;;;49.03;22.60;;;;;;;0.64;70.52;98595.78;5070609;28;20033;-77
2023/01/27 02:36:08;;;;;;;51.47;23.90;;;;;;;0.64;69.52;98592.22;5070007;28;20899;-76
2023/01/27 02:38:37;;;;;;;50.95;23.70;;;;;;;0.62;69.63;98599.72;5070447;28;20029;-75
2023/01/27 02:41:29;;;;;;;48.45;22.10;;;;;;;0.58;69.92;98602.06;5070038;28;20036;-75
2023/01/27 02:43:55;;;;;;;49.67;22.67;;;;;;;0.57;69.85;98589.63;5070621;28;20433;-75
2023/01/27 02:46:21;;;;;;;50.22;24.15;;;;;;;0.55;70.20;98602.53;5069752;28;20036;-76
2023/01/27 02:48:46;;;;;;;47.70;21.92;;;;;;;0.52;70.63;98594.88;5070032;28;20078;-76
2023/01/27 02:51:12;;;;;;;54.72;22.67;;;;;;;0.52;70.04;98595.72;5069686;28;20082;-76
2023/01/27 02:53:37;;;;;;;50.65;23.25;;;;;;;0.53;69.99;98596.53;5070135;28;20025;-76
2023/01/27 02:56:03;;;;;;;52.33;23.58;;;;;;;0.54;70.24;98593.63;5069928;28;20029;-75
2023/01/27 02:58:29;;;;;;;47.17;21.80;;;;;;;0.55;70.49;98597.97;5070113;28;20024;-76
2023/01/27 03:00:55;;;;;;;49.63;22.25;;;;;;;0.56;70.27;98601.47;5069273;28;20035;-76
2023/01/27 03:03:20;;;;;;;46.53;22.02;;;;;;;0.57;70.87;98598.56;5069761;28;20240;-76
2023/01/27 03:05:46;;;;;;;45.60;21.13;;;;;;;0.60;70.85;98616.16;5069690;28;20107;-76
2023/01/27 03:08:11;;;;;;;46.47;21.23;;;;;;;0.61;70.71;98601.63;5070274;28;20020;-76
2023/01/27 03:10:37;;;;;;;44.83;21.10;;;;;;;0.64;70.67;98605.72;5069311;28;20498;-77
2023/01/27 03:13:03;;;;;;;44.42;21.15;;;;;;;0.64;70.43;98603.03;5069891;28;20374;-76
2023/01/27 03:18:12;;;;;;;45.70;21.63;;;;;;;0.63;70.23;98604.91;5070104;28;20460;-76
2023/01/27 03:20:46;;;;;;;49.00;23.25;;;;;;;0.63;69.94;98617.56;5069241;28;20029;-76
2023/01/27 03:23:13;;;;;;;49.50;22.30;;;;;;;0.62;70.69;98608.66;5069655;28;20032;-76
2023/01/27 03:25:41;;;;;;;45.88;22.70;;;;;;;0.64;70.21;98614.66;5069173;28;20078;-75
2023/01/27 03:28:06;;;;;;;51.25;23.77;;;;;;;0.62;70.37;98610.53;5068321;28;20024;-76
2023/01/27 03:30:33;;;;;;;50.72;23.83;;;;;;;0.63;70.51;98618.41;5069120;28;20086;-76
2023/01/27 03:32:59;;;;;;;47.90;24.15;;;;;;;0.64;70.69;98616.53;5069325;28;20090;-76
2023/01/27 03:35:33;;;;;;;47.50;23.08;;;;;;;0.65;70.12;98612.78;5068855;28;20408;-76
2023/01/27 03:46:16;;;;;;;48.35;23.08;;;;;;;0.63;70.93;98615.72;5069037;28;20040;-77
2023/01/27 03:48:41;;;;;;;46.33;23.15;;;;;;;0.63;70.10;98613.00;5069258;28;20758;-76
2023/01/27 03:51:09;;;;;;;52.70;24.40;;;;;;;0.62;70.15;98600.56;5068912;28;20024;-76
2023/01/27 03:53:36;;;;;;;54.40;25.58;;;;;;;0.61;70.76;98598.91;5069202;28;20086;-75
2023/01/27 03:56:02;;;;;;;53.75;26.55;;;;;;;0.58;70.07;98602.06;5068824;28;20040;-76
2023/01/27 03:58:30;;;;;;;51.85;25.27;;;;;;;0.56;70.28;98602.31;5069451;28;20020;-76
2023/01/27 04:00:56;;;;;;;60.05;27.35;;;;;;;0.56;70.24;98606.88;5068521;28;20535;-76
2023/01/27 04:08:58;;;;;;;118.70;38.03;;;;;;;0.56;70.46;98604.19;5069349;28;20122;-76
2023/01/27 04:14:08;;;;;;;86.53;32.15;;;;;;;0.50;70.68;98614.00;5072678;28;20521;-76
2023/01/27 04:16:37;;;;;;;70.25;28.30;;;;;;;0.48;70.74;98610.72;5072884;28;20035;-76
2023/01/27 04:19:05;;;;;;;75.97;33.10;;;;;;;0.47;70.32;98594.72;5072941;28;20031;-76
2023/01/27 04:21:31;;;;;;;63.70;28.48;;;;;;;0.44;70.98;98602.22;5072801;28;20051;-76
2023/01/27 04:23:56;;;;;;;71.85;30.48;;;;;;;0.43;70.74;98603.28;5072968;28;20099;-76
2023/01/27 04:26:22;;;;;;;80.75;30.83;;;;;;;0.41;70.50;98601.88;5072327;28;20029;-76
2023/01/27 04:28:49;;;;;;;71.13;29.65;;;;;;;0.39;70.50;98599.41;5072813;28;20032;-76
2023/01/27 04:31:15;;;;;;;80.75;31.50;;;;;;;0.37;70.28;98600.69;5072239;28;20021;-76
2023/01/27 04:33:42;;;;;;;107.13;38.70;;;;;;;0.35;70.75;98602.78;5072907;28;20044;-75
2023/01/27 04:36:08;;;;;;;126.35;48.35;;;;;;;0.36;70.85;98604.41;5072762;28;20052;-76
2023/01/27 04:38:33;;;;;;;126.53;47.47;;;;;;;0.35;70.83;98605.47;5073124;28;20328;-76
2023/01/27 04:40:59;;;;;;;116.82;45.38;;;;;;;0.36;70.60;98601.72;5072310;28;20024;-76
2023/01/27 04:43:24;;;;;;;127.03;48.70;;;;;;;0.36;70.99;98596.31;5069339;28;20024;-76
2023/01/27 04:45:49;;;;;;;135.00;46.78;;;;;;;0.36;70.72;98594.47;5071710;28;20115;-76
2023/01/27 04:48:15;;;;;;;131.50;44.55;;;;;;;0.37;70.99;98597.97;5071281;28;20510;-76
2023/01/27 04:50:40;;;;;;;135.00;45.60;;;;;;;0.34;70.92;98593.88;5072306;28;20033;-76
2023/01/27 04:53:05;;;;;;;133.07;48.03;;;;;;;0.33;70.74;98591.38;5072361;28;20035;-76
2023/01/27 04:55:31;;;;;;;119.32;43.75;;;;;;;0.32;70.66;98598.66;5072357;28;20434;-76
2023/01/27 04:57:56;;;;;;;105.45;41.35;;;;;;;0.29;70.80;98599.91;5072292;28;20035;-76
2023/01/27 05:00:22;;;;;;;83.60;36.30;;;;;;;0.27;71.00;98602.03;5071749;28;20028;-76
2023/01/27 05:02:47;;;;;;;79.13;34.22;;;;;;;0.26;70.67;98600.38;5072202;28;20020;-76
2023/01/27 05:05:12;;;;;;;81.25;34.67;;;;;;;0.26;70.44;98596.88;5072155;28;20028;-76
2023/01/27 05:07:38;;;;;;;85.43;36.17;;;;;;;0.27;71.19;98607.41;5071989;28;20153;-76
2023/01/27 05:10:05;;;;;;;87.25;34.40;;;;;;;0.28;70.98;98600.97;5071295;28;20047;-76
2023/01/27 05:12:31;;;;;;;81.80;34.22;;;;;;;0.31;70.95;98604.28;5071253;28;20040;-76
2023/01/27 05:14:57;;;;;;;74.07;33.28;;;;;;;0.34;70.79;98606.53;5071808;28;20028;-77
2023/01/27 05:17:22;;;;;;;80.22;35.97;;;;;;;0.35;71.27;98605.47;5071758;28;20039;-77
2023/01/27 05:19:47;;;;;;;74.60;34.13;;;;;;;0.39;70.64;98612.06;5071452;28;20569;-76
2023/01/27 05:22:13;;;;;;;65.78;29.92;;;;;;;0.42;70.75;98614.31;5071930;28;20078;-77
2023/01/27 05:24:38;;;;;;;61.58;28.90;;;;;;;0.42;71.21;98607.03;5070471;28;20055;-76
2023/01/27 05:27:05;;;;;;;59.55;28.52;;;;;;;0.44;70.80;98604.94;5071511;28;20066;-77
2023/01/27 05:29:30;;;;;;;55.60;27.58;;;;;;;0.49;71.04;98616.91;5071274;28;20052;-76
2023/01/27 05:31:56;;;;;;;58.40;26.30;;;;;;;0.51;70.72;98617.53;5071692;28;20060;-76
2023/01/27 05:34:21;;;;;;;55.80;26.20;;;;;;;0.53;71.16;98612.72;5071545;28;20035;-77
2023/01/27 05:36:47;;;;;;;58.25;27.10;;;;;;;0.54;70.78;98614.38;5071354;28;20024;-76
2023/01/27 05:39:12;;;;;;;58.17;26.38;;;;;;;0.54;70.68;98619.78;5053116;28;20033;-76
2023/01/27 05:41:38;;;;;;;54.35;25.38;;;;;;;0.56;71.38;98629.31;5071415;28;20052;-77
2023/01/27 05:44:04;;;;;;;49.45;24.20;;;;;;;0.55;70.92;98633.06;5071562;28;20033;-76
2023/01/27 05:46:31;;;;;;;50.92;25.77;;;;;;;0.55;70.60;98629.50;5071037;28;20101;-77
2023/01/27 05:49:05;;;;;;;49.33;23.38;;;;;;;0.55;70.89;98630.34;5071175;28;20032;-77
2023/01/27 05:51:35;;;;;;;51.88;23.40;;;;;;;0.55;70.90;98627.66;5071134;28;20403;-77
2023/01/27 05:54:00;;;;;;;52.67;23.58;;;;;;;0.56;70.83;98637.41;5071393;28;20085;-76
2023/01/27 05:56:26;;;;;;;51.50;24.90;;;;;;;0.58;71.18;98632.59;5071410;28;20036;-81
2023/01/27 05:58:55;;;;;;;50.72;22.90;;;;;;;0.61;71.11;98635.91;5071250;28;20020;-81
2023/01/27 06:01:24;;;;;;;55.63;25.15;;;;;;;0.63;70.60;98631.06;5070987;28;20623;-79
2023/01/27 06:03:49;;;;;;;54.40;25.52;;;;;;;0.63;71.21;98640.00;5070513;28;20115;-78
2023/01/27 06:06:17;;;;;;;49.65;24.77;;;;;;;0.62;70.73;98637.53;5070439;28;20074;-79
2023/01/27 06:08:44;;;;;;;49.30;23.80;;;;;;;0.62;70.37;98634.81;5069145;28;20028;-79
2023/01/27 06:11:10;;;;;;;44.53;21.17;;;;;;;0.60;70.73;98645.84;5070533;28;20037;-78
2023/01/27 06:13:37;;;;;;;50.75;23.65;;;;;;;0.60;70.50;98648.56;5070260;28;20028;-79
2023/01/27 06:16:04;;;;;;;48.50;22.50;;;;;;;0.60;70.71;98635.06;5071066;28;20382;-78
2023/01/27 06:18:30;;;;;;;42.78;20.88;;;;;;;0.58;71.08;98639.88;5070528;28;20555;-78
2023/01/27 06:21:00;;;;;;;49.92;23.98;;;;;;;0.57;70.50;98640.91;5070226;28;20024;-79
2023/01/27 06:23:26;;;;;;;;;;;;;;;0.58;70.98;98643.41;5070912;28;20081;-79
2023/01/27 06:25:52;;;;;;;53.60;23.50;;;;;;;0.61;70.51;98646.69;5070157;28;19916;-78
2023/01/27 06:28:18;;;;;;;52.67;23.45;;;;;;;0.59;70.44;98647.75;5070608;28;20059;-79
2023/01/27 06:30:43;;;;;;;54.90;25.65;;;;;;;0.61;70.46;98646.69;5069873;28;20411;-78
2023/01/27 06:33:09;;;;;;;58.03;24.52;;;;;;;0.60;71.00;98656.66;5070164;28;20106;-79
2023/01/27 06:35:36;;;;;;;53.97;25.17;;;;;;;0.59;70.76;98657.72;5069890;28;20533;-79
2023/01/27 06:38:04;;;;;;;51.05;23.35;;;;;;;0.58;70.63;98656.91;5069909;28;20036;-78
2023/01/27 06:40:31;;;;;;;51.10;24.98;;;;;;;0.57;70.26;98657.94;5069283;28;20081;-78
2023/01/27 06:42:57;;;;;;;47.70;23.05;;;;;;;0.57;70.14;98657.09;5069921;28;20029;-78
2023/01/27 06:45:22;;;;;;;50.55;23.83;;;;;;;0.58;70.21;98664.16;5069964;28;20032;-79
2023/01/27 06:47:58;;;;;;;51.30;23.02;;;;;;;0.56;70.53;98672.50;5069995;28;20037;-79
2023/01/27 06:50:26;;;;;;;45.17;21.40;;;;;;;0.52;70.52;98665.06;5069346;28;20490;-79
2023/01/27 06:52:51;;;;;;;45.00;20.27;;;;;;;0.47;70.28;98673.84;5069988;28;20024;-79
2023/01/27 06:55:18;;;;;;;39.13;18.30;;;;;;;0.43;70.39;98678.03;5069856;28;20103;-79
2023/01/27 06:57:46;;;;;;;43.88;20.45;;;;;;;0.40;70.00;98670.38;5069948;28;20036;-79
2023/01/27 07:00:13;;;;;;;41.65;18.73;;;;;;;0.37;70.20;98674.38;5069079;28;20032;-79
2023/01/27 07:02:38;;;;;;;40.28;19.20;;;;;;;0.36;69.87;98674.56;5069256;28;20044;-78
2023/01/27 07:05:04;;;;;;;34.40;17.65;;;;;;;0.36;70.39;98672.72;5069512;28;20033;-78
2023/01/27 07:07:29;;;;;;;38.50;18.40;;;;;;;0.35;70.48;98667.53;5069411;28;20123;-80
2023/01/27 07:09:55;;;;;;;32.92;16.58;;;;;;;0.34;69.75;98672.13;5069904;28;20393;-80
2023/01/27 07:12:20;;;;;;;35.40;16.88;;;;;;;0.33;70.02;98677.72;5069581;28;20036;-80
2023/01/27 07:14:45;;;;;;;33.42;16.02;;;;;;;0.31;69.61;98677.13;5070062;28;20032;-80
2023/01/27 07:17:11;;;;;;;31.73;15.38;;;;;;;0.28;70.16;98679.22;5068960;28;20025;-79
2023/01/27 07:19:36;;;;;;;31.52;15.25;;;;;;;0.26;69.96;98678.59;5065729;28;20021;-79
2023/01/27 07:22:01;;;;;;;33.28;15.60;;;;;;;0.21;69.96;98672.25;5068747;28;20052;-79
2023/01/27 07:24:27;;;;;;;33.38;16.10;;;;;;;0.20;69.35;98670.59;5068848;28;20016;-79
2023/01/27 07:26:52;;;;;;;31.90;15.75;;;;;;;0.20;69.89;98678.69;5069261;28;20109;-80
2023/01/27 07:29:17;;;;;;;33.78;16.08;;;;;;;0.22;69.71;98671.19;5069451;28;20028;-79
2023/01/27 07:31:43;;;;;;;30.23;15.18;;;;;;;0.24;69.42;98678.00;5069761;28;20112;-79
2023/01/27 07:34:09;;;;;;;38.42;17.83;;;;;;;0.27;69.49;98674.06;5069612;28;20099;-80
2023/01/27 07:36:34;;;;;;;34.45;16.63;;;;;;;0.26;69.79;98677.78;5051667;28;20092;-80
2023/01/27 07:39:00;;;;;;;32.90;16.73;;;;;;;0.28;69.90;98681.09;5069905;28;20074;-78
2023/01/27 07:41:25;;;;;;;34.92;17.60;;;;;;;0.28;69.73;98676.50;5069857;28;20494;-79
2023/01/27 07:43:50;;;;;;;38.08;18.13;;;;;;;0.30;69.33;98673.59;5069953;28;20028;-78
2023/01/27 07:46:16;;;;;;;37.55;17.13;;;;;;;0.32;69.68;98681.47;5069375;28;20052;-79
2023/01/27 07:48:41;;;;;;;36.05;18.17;;;;;;;0.34;69.33;98679.38;5072265;28;20032;-79
2023/01/27 07:51:12;;;;;;;34.80;16.80;;;;;;;0.35;69.52;98675.63;5073429;28;20063;-83
2023/01/27 07:53:38;;;;;;;39.50;20.63;;;;;;;0.35;69.42;98681.03;5073707;28;20099;-80
2023/01/27 07:56:03;;;;;;;37.67;18.73;;;;;;;0.36;69.02;98682.66;5073293;28;20494;-80
2023/01/27 07:58:29;;;;;;;34.65;17.55;;;;;;;0.35;69.27;98684.56;5073998;28;20024;-81
2023/01/27 08:00:54;;;;;;;34.10;17.40;;;;;;;0.35;69.19;98678.31;5073134;28;20501;-80
2023/01/27 08:03:23;;;;;;;37.90;18.25;;;;;;;0.35;68.75;98686.41;5073585;28;20938;-82
2023/01/27 08:05:49;;;;;;;69.82;34.92;;;;;;;0.37;68.95;98687.00;5073235;28;20486;-83
2023/01/27 08:08:15;;;;;;;98.40;40.20;;;;;;;0.37;69.23;98687.84;5073625;28;20034;-81
2023/01/27 08:10:45;;;;;;;67.35;27.83;;;;;;;0.41;69.28;98686.34;5073162;28;20048;-81
2023/01/27 08:13:11;;;;;;;159.32;56.13;;;;;;;0.45;68.92;98689.41;5073570;28;20230;-81
2023/01/27 08:15:36;;;;;;;137.38;50.95;;;;;;;0.44;68.60;98685.88;5073144;28;20111;-80
2023/01/27 08:18:02;;;;;;;109.03;48.70;;;;;;;0.46;68.67;98693.78;5073666;28;20474;-80
2023/01/27 08:20:28;;;;;;;66.72;31.30;;;;;;;0.51;69.07;98685.84;5072245;28;20025;-77
2023/01/27 08:22:54;;;;;;;57.20;30.10;;;;;;;0.55;68.91;98692.44;5073000;28;20029;-80
2023/01/27 08:25:20;;;;;;;61.58;33.92;;;;;;;0.61;69.00;98681.78;5073393;28;20091;-80
2023/01/27 08:27:49;;;;;;;76.68;36.17;;;;;;;0.63;68.95;98694.00;5073021;28;20029;-80
2023/01/27 08:30:15;;;;;;;69.43;33.13;;;;;;;0.65;68.43;98694.59;5071335;28;20741;-80
2023/01/27 08:32:40;;;;;;;49.70;24.42;;;;;;;0.64;68.35;98697.50;5073455;28;20282;-79
2023/01/27 08:35:06;;;;;;;44.35;23.00;;;;;;;0.66;68.84;98696.25;5072547;28;20547;-78
2023/01/27 08:37:31;;;;;;;43.30;22.00;;;;;;;0.69;68.20;98693.09;5073134;28;20386;-79
2023/01/27 08:39:56;;;;;;;39.35;18.75;;;;;;;0.71;68.14;98701.78;5072752;28;20029;-80
2023/01/27 08:42:22;;;;;;;37.92;19.10;;;;;;;0.72;68.05;98708.00;5072701;28;20033;-80
2023/01/27 08:44:47;;;;;;;34.17;18.33;;;;;;;0.73;68.35;98709.66;5072939;28;20032;-80
2023/01/27 08:47:12;;;;;;;35.15;17.73;;;;;;;0.75;68.34;98707.56;5072820;28;20112;-81
2023/01/27 08:49:38;;;;;;;34.75;17.45;;;;;;;0.77;67.74;98713.56;5072392;28;20024;-80
2023/01/27 08:52:03;;;;;;;34.20;17.48;;;;;;;0.80;68.39;98715.00;5072345;28;20043;-80
2023/01/27 08:54:29;;;;;;;35.35;17.10;;;;;;;0.82;67.63;98723.66;5072921;28;20031;-81
2023/01/27 08:56:54;;;;;;;37.97;20.00;;;;;;;0.84;67.57;98714.31;5072547;28;20111;-81
2023/01/27 08:59:20;;;;;;;42.47;22.00;;;;;;;0.86;67.90;98714.91;5072010;28;20033;-80
2023/01/27 09:01:45;;;;;;;50.08;25.58;;;;;;;0.91;67.95;98718.81;5072620;28;20040;-81
2023/01/27 09:04:11;;;;;;;29.50;15.13;;;;;;;0.89;67.52;98716.31;5072700;28;20107;-79
2023/01/27 09:06:36;;;;;;;27.75;13.77;;;;;;;0.85;67.22;98720.53;5071969;28;20032;-79
2023/01/27 09:09:07;;;;;;;27.60;13.88;;;;;;;0.84;67.87;98726.97;5072707;28;20049;-80
2023/01/27 09:11:39;;;;;;;31.50;16.45;;;;;;;0.83;67.48;98731.56;5072269;28;20029;-81
2023/01/27 09:14:05;;;;;;;26.08;15.45;;;;;;;0.84;67.39;98729.66;5070525;28;20060;-79
2023/01/27 09:16:30;;;;;;;26.65;14.90;;;;;;;0.85;67.73;98731.31;5071880;28;20064;-80
2023/01/27 09:18:57;;;;;;;27.65;15.43;;;;;;;0.88;67.65;98737.13;5072027;28;20031;-81
2023/01/27 09:21:22;;;;;;;30.13;15.35;;;;;;;0.90;67.55;98736.88;5071494;28;20107;-81
2023/01/27 09:23:48;;;;;;;30.33;15.75;;;;;;;0.91;67.64;98738.53;5072408;28;20081;-80
2023/01/27 09:26:14;;;;;;;28.65;15.25;;;;;;;0.91;67.03;98738.53;5071880;28;20032;-79
2023/01/27 09:28:40;;;;;;;28.65;14.75;;;;;;;0.93;67.39;98746.41;5072244;28;20031;-80
2023/01/27 09:31:08;;;;;;;27.65;13.35;;;;;;;0.95;67.54;98745.13;5071514;28;20029;-80
2023/01/27 09:33:34;;;;;;;36.78;16.70;;;;;;;0.99;67.77;98750.91;5071876;28;20023;-80
2023/01/27 09:36:04;;;;;;;44.03;22.15;;;;;;;0.99;67.52;98743.63;5071799;28;20374;-80
2023/01/27 09:38:33;;;;;;;78.50;32.60;;;;;;;0.96;66.99;98749.47;5072261;28;20029;-80
2023/01/27 09:41:14;;;;;;;184.90;58.63;;;;;;;0.94;67.13;98743.47;5072122;28;20132;-80
2023/01/27 09:44:00;;;;;;;177.65;53.15;;;;;;;0.97;67.72;98753.81;5071965;28;20052;-80
2023/01/27 09:46:32;;;;;;;137.85;49.03;;;;;;;1.00;67.55;98744.47;5071348;28;20052;-80
2023/01/27 09:49:19;;;;;;;94.07;38.70;;;;;;;1.01;67.44;98744.22;5070691;28;20689;-80
2023/01/27 09:51:44;;;;;;;53.40;27.40;;;;;;;1.00;67.67;98745.28;5071289;28;20062;-80
2023/01/27 09:54:28;;;;;;;53.83;27.52;;;;;;;0.97;67.66;98753.81;5071998;28;20013;-79
2023/01/27 09:57:02;;;;;;;121.90;41.42;;;;;;;0.98;67.12;98743.88;5067042;28;20119;-76
2023/01/27 09:59:46;;;;;;;33.78;16.58;;;;;;;0.97;67.57;98737.63;5068295;28;20029;-78
2023/01/27 10:02:30;;;;;;;74.28;26.85;;;;;;;0.95;66.94;98741.63;5051818;28;20509;-74
2023/01/27 10:05:23;;;;;;;55.00;21.90;;;;;;;0.91;67.78;98743.13;5069083;28;20036;-75
2023/01/27 10:08:07;;;;;;;41.97;19.10;;;;;;;0.92;67.62;98740.16;5068511;28;20085;-74
2023/01/27 10:10:50;;;;;;;47.15;21.38;;;;;;;0.86;67.48;98741.91;5068712;28;20044;-77
2023/01/27 10:13:42;;;;;;;43.50;20.05;;;;;;;0.84;67.24;98732.38;5067674;28;20131;-81
2023/01/27 10:16:30;;;;;;;34.13;17.23;;;;;;;0.83;67.70;98733.41;5072189;28;20111;-76
2023/01/27 10:19:05;;;;;;;32.83;17.05;;;;;;;0.82;67.61;98729.91;5068718;28;20024;-78
2023/01/27 10:21:42;;;;;;;42.47;23.30;;;;;;;0.83;67.96;98734.25;5067463;28;20486;-80
2023/01/27 10:24:39;;;;;;;40.75;21.42;;;;;;;0.81;67.48;98735.56;5072135;28;20600;-78
2023/01/27 10:27:23;;;;;;;52.15;25.55;;;;;;;0.80;67.83;98737.41;5071811;28;20079;-77
2023/01/27 10:29:58;;;;;;;61.45;30.45;;;;;;;0.83;68.09;98736.97;5061234;28;20036;-81
2023/01/27 10:32:36;;;;;;;65.28;31.48;;;;;;;0.85;67.83;98736.72;5068077;28;20078;-79
2023/01/27 10:35:13;;;;;;;53.47;25.85;;;;;;;0.87;67.77;98731.91;5069131;28;20543;-78
2023/01/27 10:38:08;;;;;;;57.17;28.85;;;;;;;0.86;67.73;98744.63;5069110;28;20036;-76
2023/01/27 10:41:04;;;;;;;53.67;25.40;;;;;;;0.86;67.73;98738.38;5068244;28;20052;-77
2023/01/27 10:43:51;;;;;;;53.40;26.05;;;;;;;0.85;67.53;98729.47;5063810;28;20029;-77
2023/01/27 10:46:41;;;;;;;68.65;29.77;;;;;;;0.85;67.56;98729.47;5072721;28;20033;-80
2023/01/27 10:49:13;;;;;;;44.75;21.83;;;;;;;0.87;67.65;98732.75;5066540;28;20036;-83
2023/01/27 10:51:48;;;;;;;47.80;21.90;;;;;;;0.84;67.55;98733.22;5069400;28;20029;-79
2023/01/27 10:54:29;;;;;;;57.85;24.08;;;;;;;0.87;68.03;98740.88;5071119;28;20059;-79
2023/01/27 10:57:01;;;;;;;65.60;25.80;;;;;;;0.90;67.48;98736.88;5047373;28;20086;-79
2023/01/27 10:59:45;;;;;;;58.88;24.80;;;;;;;0.95;67.93;98734.31;5071132;28;20024;-79
2023/01/27 11:02:30;;;;;;;75.75;28.83;;;;;;;1.00;67.88;98739.06;5068140;28;20485;-76
2023/01/27 11:05:04;;;;;;;39.63;19.95;;;;;;;1.03;68.19;98731.31;5065985;28;20043;-77
2023/01/27 11:07:33;;;;;;;57.55;26.92;;;;;;;1.02;67.90;98734.22;5068411;28;20040;-76
2023/01/27 11:10:02;;;;;;;64.50;26.87;;;;;;;0.99;67.41;98732.81;5069920;28;20097;-75
2023/01/27 11:12:31;;;;;;;75.55;27.52;;;;;;;1.00;67.51;98729.06;5068225;28;20032;-78
2023/01/27 11:14:58;;;;;;;82.25;29.30;;;;;;;1.02;67.39;98734.22;5066894;28;20081;-80
2023/01/27 11:17:30;;;;;;;62.10;25.20;;;;;;;1.01;67.89;98738.00;5065593;28;20433;-76
2023/01/27 11:20:15;;;;;;;44.00;22.02;;;;;;;1.01;68.03;98735.31;5066481;28;20037;-77
2023/01/27 11:23:06;;;;;;;46.17;21.23;;;;;;;1.02;67.95;98734.22;5066851;28;20514;-80
2023/01/27 11:26:00;;;;;;;52.58;22.45;;;;;;;1.02;67.63;98728.81;5061867;28;20055;-79
2023/01/27 11:28:44;;;;;;;48.00;22.50;;;;;;;1.07;67.86;98725.47;5068827;28;20020;-79
2023/01/27 11:31:38;;;;;;;56.42;22.90;;;;;;;1.04;67.92;98734.81;5067761;28;20549;-76
2023/01/27 11:34:16;;;;;;;55.17;24.42;;;;;;;1.03;67.58;98735.88;5066916;28;20116;-80
2023/01/27 11:36:41;;;;;;;59.33;26.65;;;;;;;1.06;67.28;98731.91;5067856;28;20048;-79
2023/01/27 11:39:09;;;;;;;45.95;23.20;;;;;;;1.05;67.65;98733.78;5069353;28;20029;-79
2023/01/27 11:41:44;;;;;;;41.15;20.58;;;;;;;1.05;67.70;98733.78;5065360;28;20090;-82
2023/01/27 11:44:19;;;;;;;40.05;20.35;;;;;;;1.04;67.28;98735.66;5067554;28;20499;-79
2023/01/27 11:46:46;;;;;;;54.47;25.85;;;;;;;1.07;67.67;98739.78;5065691;28;20033;-79
2023/01/27 11:49:18;;;;;;;54.88;25.77;;;;;;;1.10;67.58;98736.63;5066656;28;20032;-76
2023/01/27 11:51:43;;;;;;;62.90;29.13;;;;;;;1.14;67.84;98735.13;5068519;28;20025;-79
2023/01/27 11:54:28;;;;;;;61.15;26.20;;;;;;;1.12;68.18;98736.41;5068703;28;20024;-81
2023/01/27 11:56:53;;;;;;;66.10;28.40;;;;;;;1.13;67.91;98732.66;5068365;28;20036;-79
2023/01/27 11:59:24;;;;;;;53.65;27.65;;;;;;;1.11;67.36;98732.06;5069097;28;20074;-79
2023/01/27 12:02:19;;;;;;;57.20;31.15;;;;;;;1.08;67.68;98725.22;5065329;28;20554;-77
2023/01/27 12:04:50;;;;;;;75.57;31.88;;;;;;;1.11;67.92;98730.16;5060158;28;20071;-80